createdAt,value
2022-08-25T03:39:16.702Z,100473.31
2022-08-25T03:42:19.837Z,100473.31
2022-08-25T03:45:22.897Z,100478.16
2022-08-25T03:48:25.722Z,100471.37
2022-08-25T03:51:35.661Z,100473.19
2022-08-25T03:54:38.629Z,100473.06
2022-08-25T03:57:41.134Z,100479.00
2022-08-25T04:00:44.887Z,100476.12
2022-08-25T04:03:48.172Z,100475.00
2022-08-25T04:06:50.879Z,100475.62
2022-08-25T04:09:56.812Z,100467.91
2022-08-25T04:12:59.864Z,100479.59
2022-08-25T04:16:04.581Z,100483.47
2022-08-25T04:19:09.352Z,100477.66
2022-08-25T04:22:13.233Z,100480.81
2022-08-25T04:25:15.931Z,100477.31
2022-08-25T04:28:19.026Z,100485.66
2022-08-25T04:31:22.224Z,100473.56
2022-08-25T04:34:29.359Z,100478.53
2022-08-25T04:37:33.746Z,100480.44
2022-08-25T04:40:36.576Z,100473.53
2022-08-25T04:43:41.105Z,100483.31
2022-08-25T04:46:44.113Z,100481.28
2022-08-25T04:49:46.665Z,100477.84
2022-08-25T04:52:49.539Z,100468.63
2022-08-25T04:55:51.956Z,100473.56
2022-08-25T04:58:55.885Z,100481.56
2022-08-25T05:02:06.484Z,100482.13
2022-08-25T05:05:09.267Z,100481.34
2022-08-25T05:08:11.756Z,100481.91
2022-08-25T05:11:18.890Z,100479.56
2022-08-25T05:14:25.731Z,100484.41
2022-08-25T05:17:29.266Z,100473.81
2022-08-25T05:20:31.951Z,100472.00
2022-08-25T05:23:34.939Z,100482.00
2022-08-25T05:26:38.336Z,100475.56
2022-08-25T05:29:41.898Z,100476.72
2022-08-25T05:32:44.954Z,100471.88
2022-08-25T05:35:47.772Z,100470.38
2022-08-25T05:38:50.697Z,100470.28
2022-08-25T05:41:53.535Z,100477.19
2022-08-25T05:44:56.106Z,100485.41
2022-08-25T05:47:59.008Z,100479.34
2022-08-25T05:51:04.766Z,100475.25
2022-08-25T05:54:07.701Z,100478.44
2022-08-25T05:57:10.252Z,100473.88
2022-08-25T06:00:13.559Z,100469.03
2022-08-25T06:03:16.635Z,100473.53
2022-08-25T06:06:19.396Z,100473.03
2022-08-25T06:09:22.902Z,100476.34
2022-08-25T06:12:25.450Z,100469.09
2022-08-25T06:15:28.143Z,100473.25
2022-08-25T06:18:30.577Z,100473.56
2022-08-25T06:21:33.287Z,100474.44
2022-08-25T06:24:37.142Z,100476.44
2022-08-25T06:27:40.400Z,100485.34
2022-08-25T06:30:43.228Z,100488.09
2022-08-25T06:33:46.580Z,100486.53
2022-08-25T06:36:50.535Z,100494.75
2022-08-25T06:39:53.481Z,100489.28
2022-08-25T06:42:55.935Z,100501.97
2022-08-25T06:46:07.541Z,100498.13
2022-08-25T06:49:12.783Z,100501.16
2022-08-25T06:52:15.683Z,100505.31
2022-08-25T06:55:18.649Z,100492.03
2022-08-25T06:58:21.473Z,100500.03
2022-08-25T07:01:27.011Z,100499.41
2022-08-25T07:04:30.380Z,100496.25
2022-08-25T07:07:42.876Z,100501.31
2022-08-25T07:10:48.140Z,100498.13
2022-08-25T07:13:51.247Z,100501.03
2022-08-25T07:16:54.168Z,100499.69
2022-08-25T07:19:57.389Z,100494.31
2022-08-25T07:23:00.688Z,100491.13
2022-08-25T07:26:36.315Z,100493.84
2022-08-25T07:29:42.663Z,100491.81
2022-08-25T07:32:45.594Z,100493.34
2022-08-25T07:35:48.459Z,100496.88
2022-08-25T07:38:52.933Z,100491.97
2022-08-25T07:41:58.176Z,100486.56
2022-08-25T07:45:00.763Z,100498.41
2022-08-25T07:48:10.699Z,100495.66
2022-08-25T07:51:17.534Z,100493.75
2022-08-25T07:54:20.820Z,100485.41
2022-08-25T07:57:26.325Z,100479.81
2022-08-25T08:00:30.286Z,100486.06
2022-08-25T08:03:50.063Z,100484.37
2022-08-25T08:06:53.826Z,100485.00
2022-08-25T08:10:32.930Z,100483.63
2022-08-25T08:13:19.505Z,100479.47
2022-08-25T08:16:25.926Z,100485.06
2022-08-25T08:19:28.594Z,100482.19
2022-08-25T08:22:31.663Z,100487.50
2022-08-25T08:25:34.184Z,100488.06
2022-08-25T08:28:37.276Z,100487.16
2022-08-25T08:31:40.779Z,100485.41
2022-08-25T08:34:51.512Z,100484.00
2022-08-25T08:37:54.296Z,100473.25
2022-08-25T08:41:40.080Z,100476.16
2022-08-25T08:44:45.949Z,100475.84
2022-08-25T08:48:13.664Z,100472.38
2022-08-25T08:51:23.215Z,100472.84
2022-08-25T08:54:31.076Z,100476.03
2022-08-25T08:57:45.083Z,100477.72
2022-08-25T09:00:56.039Z,100472.88
2022-08-25T09:04:17.429Z,100468.47
2022-08-25T09:07:30.375Z,100465.66
2022-08-25T09:10:50.619Z,100473.44
2022-08-25T09:14:14.067Z,100479.50
2022-08-25T09:17:38.419Z,100464.16
2022-08-25T09:20:58.241Z,100464.47
2022-08-25T09:24:28.329Z,100458.03
2022-08-25T09:27:49.540Z,100453.34
2022-08-25T09:31:01.996Z,100457.06
2022-08-25T09:34:07.574Z,100440.34
2022-08-25T09:37:09.987Z,100439.28
2022-08-25T09:40:12.908Z,100436.25
2022-08-25T09:43:40.347Z,100431.06
2022-08-25T09:47:13.563Z,100430.34
2022-08-25T09:50:20.090Z,100423.06
2022-08-25T09:53:23.583Z,100417.53
2022-08-25T09:56:31.998Z,100418.16
2022-08-25T09:59:37.096Z,100408.09
2022-08-25T10:02:40.982Z,100404.31
2022-08-25T10:05:46.010Z,100403.94
2022-08-25T10:08:48.503Z,100401.44
2022-08-25T10:11:52.633Z,100399.44
2022-08-25T10:15:00.370Z,100396.63
2022-08-25T10:18:15.737Z,100403.66
2022-08-25T10:21:20.068Z,100393.19
2022-08-25T10:24:25.397Z,100390.13
2022-08-25T10:27:58.502Z,100388.75
2022-08-25T10:31:10.482Z,100376.94
2022-08-25T10:34:36.997Z,100383.94
2022-08-25T10:37:44.292Z,100366.91
2022-08-25T10:41:00.374Z,100366.25
2022-08-25T10:44:33.912Z,100371.84
2022-08-25T10:47:49.694Z,100363.34
2022-08-25T10:51:19.631Z,100364.53
2022-08-25T10:54:55.831Z,100359.63
2022-08-25T10:58:13.055Z,100358.84
2022-08-25T11:01:53.421Z,100352.25
2022-08-25T11:05:09.657Z,100348.91
2022-08-25T11:08:28.986Z,100340.12
2022-08-25T11:11:37.818Z,100340.75
2022-08-25T11:14:49.204Z,100334.03
2022-08-25T11:17:51.983Z,100330.44
2022-08-25T11:21:09.799Z,100329.44
2022-08-25T11:24:32.927Z,100325.34
2022-08-25T11:27:58.195Z,100328.47
2022-08-25T11:31:03.475Z,100322.28
2022-08-25T11:34:15.401Z,100311.56
2022-08-25T11:37:28.975Z,100308.31
2022-08-25T11:40:34.522Z,100306.66
2022-08-25T11:43:44.363Z,100296.44
2022-08-25T11:47:05.622Z,100294.22
2022-08-25T11:50:49.601Z,100282.53
2022-08-25T11:54:21.563Z,100277.56
2022-08-25T11:57:29.067Z,100277.59
2022-08-25T12:00:41.104Z,100274.47
2022-08-25T12:03:44.212Z,100270.06
2022-08-25T12:07:05.691Z,100269.09
2022-08-25T12:10:13.992Z,100263.81
2022-08-25T12:13:51.548Z,100264.47
2022-08-25T12:16:54.455Z,100262.50
2022-08-25T12:19:59.538Z,100255.88
2022-08-25T12:23:02.559Z,100266.75
2022-08-25T12:26:19.165Z,100268.16
2022-08-25T12:29:22.421Z,100268.34
2022-08-25T12:32:34.116Z,100261.00
2022-08-25T12:35:55.450Z,100261.47
2022-08-25T12:39:17.168Z,100258.56
2022-08-25T12:42:37.975Z,100253.06
2022-08-25T12:45:44.201Z,100244.25
2022-08-25T12:49:23.824Z,100248.88
2022-08-25T12:52:28.111Z,100241.59
2022-08-25T12:55:33.317Z,100239.12
2022-08-25T12:59:00.271Z,100234.41
2022-08-25T13:02:29.798Z,100230.28
2022-08-25T13:05:54.337Z,100225.44
2022-08-25T13:09:28.528Z,100222.06
2022-08-25T13:12:43.285Z,100214.41
2022-08-25T13:15:58.453Z,100218.69
2022-08-25T13:19:05.343Z,100210.53
2022-08-25T13:22:16.365Z,100202.19
2022-08-25T13:25:24.704Z,100197.97
2022-08-25T13:28:40.822Z,100189.59
2022-08-25T13:32:09.577Z,100190.78
2022-08-25T13:35:32.697Z,100188.44
2022-08-25T13:38:35.506Z,100188.25
2022-08-25T13:41:45.488Z,100190.56
2022-08-25T13:44:51.917Z,100185.47
2022-08-25T13:47:57.099Z,100180.84
2022-08-25T13:51:39.639Z,100173.88
2022-08-25T13:54:50.469Z,100177.69
2022-08-25T13:57:53.383Z,100179.47
2022-08-25T14:01:23.648Z,100168.22
2022-08-25T14:04:51.176Z,100168.84
2022-08-25T14:08:09.244Z,100162.00
2022-08-25T14:11:29.140Z,100145.84
2022-08-25T14:14:37.655Z,100143.81
2022-08-25T14:17:43.658Z,100145.94
2022-08-25T14:20:54.340Z,100139.09
2022-08-25T14:23:58.431Z,100130.09
2022-08-25T14:27:03.275Z,100115.09
2022-08-25T14:30:06.779Z,100110.31
2022-08-25T14:33:10.226Z,100097.69
2022-08-25T14:40:55.448Z,100095.47
2022-08-25T14:44:05.099Z,100090.47
2022-08-25T14:47:07.886Z,100095.56
2022-08-25T14:50:12.764Z,100093.16
2022-08-25T14:53:15.632Z,100083.63
2022-08-25T14:56:18.455Z,100093.88
2022-08-25T14:59:21.386Z,100103.03
2022-08-25T15:02:29.649Z,100097.19
2022-08-25T15:05:33.416Z,100097.31
2022-08-25T15:08:54.832Z,100092.66
2022-08-25T15:11:58.124Z,100086.25
2022-08-25T15:15:04.378Z,100091.72
2022-08-25T15:18:08.263Z,100082.50
2022-08-25T15:21:12.786Z,100085.56
2022-08-25T15:24:19.543Z,100080.28
